sensor_id;sensor_type;location;lat;lon;timestamp;temperature;humidity
20833;DHT22;56075;51.264;7.150;2023-08-08T00:01:46;14.80;99.90
20833;DHT22;56075;51.264;7.150;2023-08-08T00:04:17;14.90;99.90
20833;DHT22;56075;51.264;7.150;2023-08-08T00:06:48;14.80;99.90
20833;DHT22;56075;51.264;7.150;2023-08-08T00:09:20;14.80;99.90
20833;DHT22;56075;51.264;7.150;2023-08-08T00:11:51;15.80;99.90
20833;DHT22;56075;51.264;7.150;2023-08-08T00:14:23;14.70;99.90
20833;DHT22;56075;51.264;7.150;2023-08-08T00:16:54;14.60;99.90
20833;DHT22;56075;51.264;7.150;2023-08-08T00:19:25;15.30;99.90
20833;DHT22;56075;51.264;7.150;2023-08-08T00:21:56;15.00;99.90
20833;DHT22;56075;51.264;7.150;2023-08-08T00:24:28;15.30;99.90
20833;DHT22;56075;51.264;7.150;2023-08-08T00:26:59;14.60;99.90
20833;DHT22;56075;51.264;7.150;2023-08-08T00:29:30;14.80;99.90
20833;DHT22;56075;51.264;7.150;2023-08-08T00:32:01;14.10;99.90
20833;DHT22;56075;51.264;7.150;2023-08-08T00:34:32;14.40;99.90
20833;DHT22;56075;51.264;7.150;2023-08-08T00:37:03;14.40;99.90
20833;DHT22;56075;51.264;7.150;2023-08-08T00:39:34;14.40;99.90
20833;DHT22;56075;51.264;7.150;2023-08-08T00:42:06;14.20;99.90
20833;DHT22;56075;51.264;7.150;2023-08-08T00:44:37;14.40;99.90
20833;DHT22;56075;51.264;7.150;2023-08-08T00:47:09;14.20;99.90
20833;DHT22;56075;51.264;7.150;2023-08-08T00:49:41;14.30;99.90
20833;DHT22;56075;51.264;7.150;2023-08-08T00:52:14;14.20;99.90
20833;DHT22;56075;51.264;7.150;2023-08-08T00:54:46;14.20;99.90
20833;DHT22;56075;51.264;7.150;2023-08-08T00:57:17;14.30;99.90
20833;DHT22;56075;51.264;7.150;2023-08-08T00:59:48;14.60;99.90
20833;DHT22;56075;51.264;7.150;2023-08-08T01:02:20;14.30;99.90
20833;DHT22;56075;51.264;7.150;2023-08-08T01:04:51;14.40;99.90
20833;DHT22;56075;51.264;7.150;2023-08-08T01:07:33;14.20;99.90
20833;DHT22;56075;51.264;7.150;2023-08-08T01:10:41;14.20;99.90
20833;DHT22;56075;51.264;7.150;2023-08-08T01:13:19;14.20;99.90
20833;DHT22;56075;51.264;7.150;2023-08-08T01:15:53;14.20;99.90
20833;DHT22;56075;51.264;7.150;2023-08-08T01:18:26;13.90;99.90
20833;DHT22;56075;51.264;7.150;2023-08-08T01:20:58;14.10;99.90
20833;DHT22;56075;51.264;7.150;2023-08-08T01:23:41;14.20;99.90
20833;DHT22;56075;51.264;7.150;2023-08-08T01:26:13;14.20;99.90
20833;DHT22;56075;51.264;7.150;2023-08-08T01:28:45;14.10;99.90
20833;DHT22;56075;51.264;7.150;2023-08-08T01:31:16;14.20;99.90
20833;DHT22;56075;51.264;7.150;2023-08-08T01:33:47;14.30;99.90
20833;DHT22;56075;51.264;7.150;2023-08-08T01:36:25;14.30;99.90
20833;DHT22;56075;51.264;7.150;2023-08-08T01:39:00;14.20;99.90
20833;DHT22;56075;51.264;7.150;2023-08-08T01:41:38;14.20;99.90
20833;DHT22;56075;51.264;7.150;2023-08-08T01:44:11;14.20;99.90
20833;DHT22;56075;51.264;7.150;2023-08-08T01:46:43;14.30;99.90
20833;DHT22;56075;51.264;7.150;2023-08-08T01:49:15;14.20;99.90
20833;DHT22;56075;51.264;7.150;2023-08-08T01:51:46;14.20;99.90
20833;DHT22;56075;51.264;7.150;2023-08-08T01:54:18;13.80;99.90
20833;DHT22;56075;51.264;7.150;2023-08-08T01:56:49;14.10;99.90
20833;DHT22;56075;51.264;7.150;2023-08-08T01:59:21;14.20;99.90
20833;DHT22;56075;51.264;7.150;2023-08-08T02:01:52;14.10;99.90
20833;DHT22;56075;51.264;7.150;2023-08-08T02:04:23;14.10;99.90
20833;DHT22;56075;51.264;7.150;2023-08-08T02:06:54;14.10;99.90
20833;DHT22;56075;51.264;7.150;2023-08-08T02:09:25;13.90;99.90
20833;DHT22;56075;51.264;7.150;2023-08-08T02:11:56;14.20;99.90
20833;DHT22;56075;51.264;7.150;2023-08-08T02:14:27;14.10;99.90
20833;DHT22;56075;51.264;7.150;2023-08-08T02:16:58;13.90;99.90
20833;DHT22;56075;51.264;7.150;2023-08-08T02:19:30;14.00;99.90
20833;DHT22;56075;51.264;7.150;2023-08-08T02:22:01;13.90;99.90
20833;DHT22;56075;51.264;7.150;2023-08-08T02:24:32;14.00;99.90
20833;DHT22;56075;51.264;7.150;2023-08-08T02:27:03;13.90;99.90
20833;DHT22;56075;51.264;7.150;2023-08-08T02:29:35;13.80;99.90
20833;DHT22;56075;51.264;7.150;2023-08-08T02:32:06;13.80;99.90
20833;DHT22;56075;51.264;7.150;2023-08-08T02:34:37;13.90;99.90
20833;DHT22;56075;51.264;7.150;2023-08-08T02:37:09;13.80;99.90
20833;DHT22;56075;51.264;7.150;2023-08-08T02:39:41;13.80;99.90
20833;DHT22;56075;51.264;7.150;2023-08-08T02:42:12;13.60;99.90
20833;DHT22;56075;51.264;7.150;2023-08-08T02:44:43;13.80;99.90
20833;DHT22;56075;51.264;7.150;2023-08-08T02:47:15;13.70;99.90
20833;DHT22;56075;51.264;7.150;2023-08-08T02:49:46;13.80;99.90
20833;DHT22;56075;51.264;7.150;2023-08-08T02:52:18;13.60;99.90
20833;DHT22;56075;51.264;7.150;2023-08-08T02:54:49;13.70;99.90
20833;DHT22;56075;51.264;7.150;2023-08-08T02:57:20;13.70;99.90
20833;DHT22;56075;51.264;7.150;2023-08-08T02:59:51;13.70;99.90
20833;DHT22;56075;51.264;7.150;2023-08-08T03:02:23;13.80;99.90
20833;DHT22;56075;51.264;7.150;2023-08-08T03:04:55;13.70;99.90
20833;DHT22;56075;51.264;7.150;2023-08-08T03:07:29;13.60;99.90
20833;DHT22;56075;51.264;7.150;2023-08-08T03:10:00;13.70;99.90
20833;DHT22;56075;51.264;7.150;2023-08-08T03:12:31;13.50;99.90
20833;DHT22;56075;51.264;7.150;2023-08-08T03:15:02;13.70;99.90
20833;DHT22;56075;51.264;7.150;2023-08-08T03:17:34;13.60;99.90
20833;DHT22;56075;51.264;7.150;2023-08-08T03:25:10;13.50;99.90
20833;DHT22;56075;51.264;7.150;2023-08-08T03:27:42;13.60;99.90
20833;DHT22;56075;51.264;7.150;2023-08-08T03:30:15;13.60;99.90
20833;DHT22;56075;51.264;7.150;2023-08-08T03:32:48;13.60;99.90
20833;DHT22;56075;51.264;7.150;2023-08-08T03:35:19;13.60;99.90
20833;DHT22;56075;51.264;7.150;2023-08-08T03:37:51;13.50;99.90
20833;DHT22;56075;51.264;7.150;2023-08-08T03:40:22;13.70;99.90
20833;DHT22;56075;51.264;7.150;2023-08-08T03:42:54;13.60;99.90
20833;DHT22;56075;51.264;7.150;2023-08-08T03:45:25;13.70;99.90
20833;DHT22;56075;51.264;7.150;2023-08-08T03:47:56;14.60;99.90
20833;DHT22;56075;51.264;7.150;2023-08-08T03:50:27;13.60;99.90
20833;DHT22;56075;51.264;7.150;2023-08-08T03:52:58;13.70;99.90
20833;DHT22;56075;51.264;7.150;2023-08-08T03:55:30;13.60;99.90
20833;DHT22;56075;51.264;7.150;2023-08-08T03:58:02;13.60;99.90
20833;DHT22;56075;51.264;7.150;2023-08-08T04:00:33;13.60;99.90
20833;DHT22;56075;51.264;7.150;2023-08-08T04:03:04;13.50;99.90
20833;DHT22;56075;51.264;7.150;2023-08-08T04:05:35;13.70;99.90
20833;DHT22;56075;51.264;7.150;2023-08-08T04:08:07;13.50;99.90
20833;DHT22;56075;51.264;7.150;2023-08-08T04:10:38;13.50;99.90
20833;DHT22;56075;51.264;7.150;2023-08-08T04:13:10;13.40;99.90
20833;DHT22;56075;51.264;7.150;2023-08-08T04:15:41;13.60;99.90
20833;DHT22;56075;51.264;7.150;2023-08-08T04:18:12;13.20;99.90
20833;DHT22;56075;51.264;7.150;2023-08-08T04:20:45;13.60;99.90
20833;DHT22;56075;51.264;7.150;2023-08-08T04:23:17;13.60;99.90
20833;DHT22;56075;51.264;7.150;2023-08-08T04:25:49;13.40;99.90
20833;DHT22;56075;51.264;7.150;2023-08-08T04:28:20;13.50;99.90
20833;DHT22;56075;51.264;7.150;2023-08-08T04:30:51;13.20;99.90
20833;DHT22;56075;51.264;7.150;2023-08-08T04:33:22;13.50;99.90
20833;DHT22;56075;51.264;7.150;2023-08-08T04:35:53;13.40;99.90
20833;DHT22;56075;51.264;7.150;2023-08-08T04:38:24;13.50;99.90
20833;DHT22;56075;51.264;7.150;2023-08-08T04:40:55;13.40;99.90
20833;DHT22;56075;51.264;7.150;2023-08-08T04:43:27;13.40;99.90
20833;DHT22;56075;51.264;7.150;2023-08-08T04:45:59;13.50;99.90
20833;DHT22;56075;51.264;7.150;2023-08-08T04:48:30;13.60;99.90
20833;DHT22;56075;51.264;7.150;2023-08-08T04:51:01;13.50;99.90
20833;DHT22;56075;51.264;7.150;2023-08-08T04:53:32;13.40;99.90
20833;DHT22;56075;51.264;7.150;2023-08-08T04:56:03;13.50;99.90
20833;DHT22;56075;51.264;7.150;2023-08-08T04:58:35;13.50;99.90
20833;DHT22;56075;51.264;7.150;2023-08-08T05:01:06;13.50;99.90
20833;DHT22;56075;51.264;7.150;2023-08-08T05:03:40;13.50;99.90
20833;DHT22;56075;51.264;7.150;2023-08-08T05:06:11;13.30;99.90
20833;DHT22;56075;51.264;7.150;2023-08-08T05:08:42;13.50;99.90
20833;DHT22;56075;51.264;7.150;2023-08-08T05:11:13;13.50;99.90
20833;DHT22;56075;51.264;7.150;2023-08-08T05:13:45;13.50;99.90
20833;DHT22;56075;51.264;7.150;2023-08-08T05:16:16;13.60;99.90
20833;DHT22;56075;51.264;7.150;2023-08-08T05:18:47;13.50;99.90
20833;DHT22;56075;51.264;7.150;2023-08-08T05:21:19;13.50;99.90
20833;DHT22;56075;51.264;7.150;2023-08-08T05:23:50;13.60;99.90
20833;DHT22;56075;51.264;7.150;2023-08-08T05:26:21;13.60;99.90
20833;DHT22;56075;51.264;7.150;2023-08-08T05:28:52;13.20;99.90
20833;DHT22;56075;51.264;7.150;2023-08-08T05:31:23;13.70;99.90
20833;DHT22;56075;51.264;7.150;2023-08-08T05:33:54;13.50;99.90
20833;DHT22;56075;51.264;7.150;2023-08-08T05:36:26;13.30;99.90
20833;DHT22;56075;51.264;7.150;2023-08-08T05:38:57;13.50;99.90
20833;DHT22;56075;51.264;7.150;2023-08-08T05:44:00;13.70;99.90
20833;DHT22;56075;51.264;7.150;2023-08-08T05:46:31;13.60;99.90
20833;DHT22;56075;51.264;7.150;2023-08-08T05:49:02;13.70;99.90
20833;DHT22;56075;51.264;7.150;2023-08-08T05:51:33;13.70;99.90
20833;DHT22;56075;51.264;7.150;2023-08-08T05:54:05;13.70;99.90
20833;DHT22;56075;51.264;7.150;2023-08-08T05:56:37;13.80;99.90
20833;DHT22;56075;51.264;7.150;2023-08-08T05:59:08;13.70;99.90
20833;DHT22;56075;51.264;7.150;2023-08-08T06:01:40;13.90;99.90
20833;DHT22;56075;51.264;7.150;2023-08-08T06:04:11;13.80;99.90
20833;DHT22;56075;51.264;7.150;2023-08-08T06:06:42;13.60;99.90
20833;DHT22;56075;51.264;7.150;2023-08-08T06:09:13;13.80;99.90
20833;DHT22;56075;51.264;7.150;2023-08-08T06:11:44;14.00;99.90
20833;DHT22;56075;51.264;7.150;2023-08-08T06:14:16;13.90;99.90
20833;DHT22;56075;51.264;7.150;2023-08-08T06:16:48;13.90;99.90
20833;DHT22;56075;51.264;7.150;2023-08-08T06:19:19;13.80;99.90
20833;DHT22;56075;51.264;7.150;2023-08-08T06:21:50;13.90;99.90
20833;DHT22;56075;51.264;7.150;2023-08-08T06:24:21;13.90;99.90
20833;DHT22;56075;51.264;7.150;2023-08-08T06:26:52;13.90;99.90
20833;DHT22;56075;51.264;7.150;2023-08-08T06:29:23;14.00;99.90
20833;DHT22;56075;51.264;7.150;2023-08-08T06:31:54;14.00;99.90
20833;DHT22;56075;51.264;7.150;2023-08-08T06:34:25;14.10;99.90
20833;DHT22;56075;51.264;7.150;2023-08-08T06:36:57;13.90;99.90
20833;DHT22;56075;51.264;7.150;2023-08-08T06:39:28;13.90;99.90
20833;DHT22;56075;51.264;7.150;2023-08-08T06:41:59;14.10;99.90
20833;DHT22;56075;51.264;7.150;2023-08-08T06:44:43;14.10;99.90
20833;DHT22;56075;51.264;7.150;2023-08-08T06:47:14;14.10;99.90
20833;DHT22;56075;51.264;7.150;2023-08-08T06:49:45;15.30;99.90
20833;DHT22;56075;51.264;7.150;2023-08-08T06:52:16;14.20;99.90
20833;DHT22;56075;51.264;7.150;2023-08-08T06:54:48;14.10;99.90
20833;DHT22;56075;51.264;7.150;2023-08-08T06:57:19;14.30;99.90
20833;DHT22;56075;51.264;7.150;2023-08-08T06:59:50;14.10;99.90
20833;DHT22;56075;51.264;7.150;2023-08-08T07:02:23;14.20;99.90
20833;DHT22;56075;51.264;7.150;2023-08-08T07:04:54;14.20;99.90
20833;DHT22;56075;51.264;7.150;2023-08-08T07:09:57;14.30;99.90
20833;DHT22;56075;51.264;7.150;2023-08-08T07:15:00;14.30;99.90
20833;DHT22;56075;51.264;7.150;2023-08-08T07:17:31;14.40;99.90
20833;DHT22;56075;51.264;7.150;2023-08-08T07:20:03;14.30;99.90
20833;DHT22;56075;51.264;7.150;2023-08-08T07:22:36;14.40;99.90
20833;DHT22;56075;51.264;7.150;2023-08-08T07:25:09;15.00;99.90
20833;DHT22;56075;51.264;7.150;2023-08-08T07:27:41;14.50;99.90
20833;DHT22;56075;51.264;7.150;2023-08-08T07:30:12;14.60;99.90
20833;DHT22;56075;51.264;7.150;2023-08-08T07:32:44;14.80;99.90
20833;DHT22;56075;51.264;7.150;2023-08-08T07:35:15;15.70;99.90
20833;DHT22;56075;51.264;7.150;2023-08-08T07:37:46;17.10;99.90
20833;DHT22;56075;51.264;7.150;2023-08-08T07:40:18;15.80;99.90
20833;DHT22;56075;51.264;7.150;2023-08-08T07:42:50;15.00;99.90
20833;DHT22;56075;51.264;7.150;2023-08-08T07:45:21;15.30;99.90
20833;DHT22;56075;51.264;7.150;2023-08-08T07:47:52;15.40;99.90
20833;DHT22;56075;51.264;7.150;2023-08-08T07:50:23;15.30;99.90
20833;DHT22;56075;51.264;7.150;2023-08-08T07:52:54;15.20;99.90
20833;DHT22;56075;51.264;7.150;2023-08-08T07:55:26;15.20;99.90
20833;DHT22;56075;51.264;7.150;2023-08-08T07:57:57;15.40;99.90
20833;DHT22;56075;51.264;7.150;2023-08-08T08:00:28;15.30;99.90
20833;DHT22;56075;51.264;7.150;2023-08-08T08:02:59;15.60;99.90
20833;DHT22;56075;51.264;7.150;2023-08-08T08:05:30;15.70;99.90
20833;DHT22;56075;51.264;7.150;2023-08-08T08:08:02;15.80;99.90
20833;DHT22;56075;51.264;7.150;2023-08-08T08:10:33;15.70;99.90
20833;DHT22;56075;51.264;7.150;2023-08-08T08:13:04;15.80;99.90
20833;DHT22;56075;51.264;7.150;2023-08-08T08:15:35;16.20;99.90
20833;DHT22;56075;51.264;7.150;2023-08-08T08:18:07;16.10;99.90
20833;DHT22;56075;51.264;7.150;2023-08-08T08:20:38;17.10;99.90
20833;DHT22;56075;51.264;7.150;2023-08-08T08:23:10;16.00;99.90
20833;DHT22;56075;51.264;7.150;2023-08-08T08:25:41;16.00;99.90
20833;DHT22;56075;51.264;7.150;2023-08-08T08:28:12;16.40;99.90
20833;DHT22;56075;51.264;7.150;2023-08-08T08:30:44;16.00;99.90
20833;DHT22;56075;51.264;7.150;2023-08-08T08:33:15;17.10;99.90
20833;DHT22;56075;51.264;7.150;2023-08-08T08:35:46;15.90;99.90
20833;DHT22;56075;51.264;7.150;2023-08-08T08:38:17;15.80;99.90
20833;DHT22;56075;51.264;7.150;2023-08-08T08:40:49;15.80;99.90
20833;DHT22;56075;51.264;7.150;2023-08-08T08:43:20;15.80;99.90
20833;DHT22;56075;51.264;7.150;2023-08-08T08:45:53;15.90;99.90
20833;DHT22;56075;51.264;7.150;2023-08-08T08:48:25;17.20;99.90
20833;DHT22;56075;51.264;7.150;2023-08-08T08:50:56;16.00;99.90
20833;DHT22;56075;51.264;7.150;2023-08-08T08:53:29;16.70;99.90
20833;DHT22;56075;51.264;7.150;2023-08-08T08:56:00;16.20;99.90
20833;DHT22;56075;51.264;7.150;2023-08-08T08:58:31;16.30;99.90
20833;DHT22;56075;51.264;7.150;2023-08-08T09:01:03;16.90;99.90
20833;DHT22;56075;51.264;7.150;2023-08-08T09:03:34;16.40;99.90
20833;DHT22;56075;51.264;7.150;2023-08-08T09:06:05;16.60;99.90
20833;DHT22;56075;51.264;7.150;2023-08-08T09:08:37;16.80;99.90
20833;DHT22;56075;51.264;7.150;2023-08-08T09:11:08;16.70;99.90
20833;DHT22;56075;51.264;7.150;2023-08-08T09:13:40;16.50;99.90
20833;DHT22;56075;51.264;7.150;2023-08-08T09:16:11;16.60;99.90
20833;DHT22;56075;51.264;7.150;2023-08-08T09:18:43;16.70;99.90
20833;DHT22;56075;51.264;7.150;2023-08-08T09:21:15;16.80;99.90
20833;DHT22;56075;51.264;7.150;2023-08-08T09:23:47;16.80;99.90
20833;DHT22;56075;51.264;7.150;2023-08-08T09:26:18;17.50;99.90
20833;DHT22;56075;51.264;7.150;2023-08-08T09:28:50;17.00;99.90
20833;DHT22;56075;51.264;7.150;2023-08-08T09:31:25;17.00;99.90
20833;DHT22;56075;51.264;7.150;2023-08-08T09:33:58;16.90;99.90
20833;DHT22;56075;51.264;7.150;2023-08-08T09:36:30;16.90;99.90
20833;DHT22;56075;51.264;7.150;2023-08-08T09:39:01;16.90;99.90
20833;DHT22;56075;51.264;7.150;2023-08-08T09:41:33;16.50;99.90
20833;DHT22;56075;51.264;7.150;2023-08-08T09:44:04;16.90;99.90
20833;DHT22;56075;51.264;7.150;2023-08-08T09:46:35;16.90;99.90
20833;DHT22;56075;51.264;7.150;2023-08-08T09:49:07;17.60;99.90
20833;DHT22;56075;51.264;7.150;2023-08-08T09:51:39;17.40;99.90
20833;DHT22;56075;51.264;7.150;2023-08-08T09:54:11;17.80;99.90
20833;DHT22;56075;51.264;7.150;2023-08-08T09:56:42;17.50;99.90
20833;DHT22;56075;51.264;7.150;2023-08-08T09:59:14;17.50;99.90
20833;DHT22;56075;51.264;7.150;2023-08-08T10:01:49;18.40;99.90
20833;DHT22;56075;51.264;7.150;2023-08-08T10:04:22;17.80;99.90
20833;DHT22;56075;51.264;7.150;2023-08-08T10:06:53;17.70;99.90
20833;DHT22;56075;51.264;7.150;2023-08-08T10:09:25;17.60;99.90
20833;DHT22;56075;51.264;7.150;2023-08-08T10:11:56;17.60;99.90
20833;DHT22;56075;51.264;7.150;2023-08-08T10:14:32;17.80;99.90
20833;DHT22;56075;51.264;7.150;2023-08-08T10:17:07;17.80;99.90
20833;DHT22;56075;51.264;7.150;2023-08-08T10:19:38;18.00;99.90
20833;DHT22;56075;51.264;7.150;2023-08-08T10:22:09;18.20;99.90
20833;DHT22;56075;51.264;7.150;2023-08-08T10:24:40;18.20;99.90
20833;DHT22;56075;51.264;7.150;2023-08-08T10:27:12;18.30;99.90
20833;DHT22;56075;51.264;7.150;2023-08-08T10:29:46;18.70;99.90
20833;DHT22;56075;51.264;7.150;2023-08-08T10:32:24;18.00;99.90
20833;DHT22;56075;51.264;7.150;2023-08-08T10:34:56;18.50;99.90
20833;DHT22;56075;51.264;7.150;2023-08-08T10:37:32;18.00;99.90
20833;DHT22;56075;51.264;7.150;2023-08-08T10:40:04;17.70;99.90
20833;DHT22;56075;51.264;7.150;2023-08-08T10:42:41;17.60;99.90
20833;DHT22;56075;51.264;7.150;2023-08-08T10:45:15;18.00;99.90
20833;DHT22;56075;51.264;7.150;2023-08-08T10:47:47;17.70;99.90
20833;DHT22;56075;51.264;7.150;2023-08-08T10:50:22;17.80;99.90
20833;DHT22;56075;51.264;7.150;2023-08-08T10:52:55;17.80;99.90
20833;DHT22;56075;51.264;7.150;2023-08-08T10:55:31;18.00;99.90
20833;DHT22;56075;51.264;7.150;2023-08-08T10:58:07;18.00;99.90
20833;DHT22;56075;51.264;7.150;2023-08-08T11:00:39;17.90;99.90
20833;DHT22;56075;51.264;7.150;2023-08-08T11:03:10;18.00;99.90
20833;DHT22;56075;51.264;7.150;2023-08-08T11:05:42;17.70;99.90
20833;DHT22;56075;51.264;7.150;2023-08-08T11:08:17;17.90;99.90
20833;DHT22;56075;51.264;7.150;2023-08-08T11:10:52;18.70;99.90
20833;DHT22;56075;51.264;7.150;2023-08-08T11:13:24;18.50;99.90
20833;DHT22;56075;51.264;7.150;2023-08-08T11:15:55;17.80;99.90
20833;DHT22;56075;51.264;7.150;2023-08-08T11:18:27;17.90;99.90
20833;DHT22;56075;51.264;7.150;2023-08-08T11:20:58;17.70;99.90
20833;DHT22;56075;51.264;7.150;2023-08-08T11:23:29;17.80;99.90
20833;DHT22;56075;51.264;7.150;2023-08-08T11:26:01;17.40;99.90
20833;DHT22;56075;51.264;7.150;2023-08-08T11:28:32;17.40;99.90
20833;DHT22;56075;51.264;7.150;2023-08-08T11:31:03;17.30;99.90
20833;DHT22;56075;51.264;7.150;2023-08-08T11:33:34;17.70;99.90
20833;DHT22;56075;51.264;7.150;2023-08-08T11:36:05;17.10;99.90
20833;DHT22;56075;51.264;7.150;2023-08-08T11:38:39;18.00;99.90
20833;DHT22;56075;51.264;7.150;2023-08-08T11:41:12;17.70;99.90
20833;DHT22;56075;51.264;7.150;2023-08-08T11:43:45;17.40;99.90
20833;DHT22;56075;51.264;7.150;2023-08-08T11:46:17;17.60;99.90
20833;DHT22;56075;51.264;7.150;2023-08-08T11:48:48;18.40;99.90
20833;DHT22;56075;51.264;7.150;2023-08-08T11:51:19;18.10;99.90
20833;DHT22;56075;51.264;7.150;2023-08-08T11:53:53;18.90;99.90
20833;DHT22;56075;51.264;7.150;2023-08-08T11:56:24;18.20;99.90
20833;DHT22;56075;51.264;7.150;2023-08-08T11:58:55;18.40;99.90
20833;DHT22;56075;51.264;7.150;2023-08-08T12:01:27;18.00;99.90
20833;DHT22;56075;51.264;7.150;2023-08-08T12:03:58;17.80;99.90
20833;DHT22;56075;51.264;7.150;2023-08-08T12:06:37;18.80;99.90
20833;DHT22;56075;51.264;7.150;2023-08-08T12:09:12;17.40;99.90
20833;DHT22;56075;51.264;7.150;2023-08-08T12:11:46;18.30;99.90
20833;DHT22;56075;51.264;7.150;2023-08-08T12:14:18;17.10;99.90
20833;DHT22;56075;51.264;7.150;2023-08-08T12:16:49;17.20;99.90
20833;DHT22;56075;51.264;7.150;2023-08-08T12:19:24;17.20;99.90
20833;DHT22;56075;51.264;7.150;2023-08-08T12:21:56;16.90;99.90
20833;DHT22;56075;51.264;7.150;2023-08-08T12:24:28;16.70;99.90
20833;DHT22;56075;51.264;7.150;2023-08-08T12:26:59;16.90;99.90
20833;DHT22;56075;51.264;7.150;2023-08-08T12:29:30;16.90;99.90
20833;DHT22;56075;51.264;7.150;2023-08-08T12:32:02;17.60;99.90
20833;DHT22;56075;51.264;7.150;2023-08-08T12:34:34;16.60;99.90
20833;DHT22;56075;51.264;7.150;2023-08-08T12:37:06;16.60;99.90
20833;DHT22;56075;51.264;7.150;2023-08-08T12:39:37;16.70;99.90
20833;DHT22;56075;51.264;7.150;2023-08-08T12:42:08;16.80;99.90
20833;DHT22;56075;51.264;7.150;2023-08-08T12:44:39;17.60;99.90
20833;DHT22;56075;51.264;7.150;2023-08-08T12:47:10;16.80;99.90
20833;DHT22;56075;51.264;7.150;2023-08-08T12:49:42;16.90;99.90
20833;DHT22;56075;51.264;7.150;2023-08-08T12:52:13;16.90;99.90
20833;DHT22;56075;51.264;7.150;2023-08-08T12:54:44;16.90;99.90
20833;DHT22;56075;51.264;7.150;2023-08-08T12:57:15;16.90;99.90
20833;DHT22;56075;51.264;7.150;2023-08-08T12:59:46;16.90;99.90
20833;DHT22;56075;51.264;7.150;2023-08-08T13:02:18;17.00;99.90
20833;DHT22;56075;51.264;7.150;2023-08-08T13:04:49;17.10;99.90
20833;DHT22;56075;51.264;7.150;2023-08-08T13:07:20;17.40;99.90
20833;DHT22;56075;51.264;7.150;2023-08-08T13:09:51;17.80;99.90
20833;DHT22;56075;51.264;7.150;2023-08-08T13:12:22;18.20;99.90
20833;DHT22;56075;51.264;7.150;2023-08-08T13:14:53;18.90;99.90
20833;DHT22;56075;51.264;7.150;2023-08-08T13:17:25;19.10;99.90
20833;DHT22;56075;51.264;7.150;2023-08-08T13:19:56;19.80;99.90
20833;DHT22;56075;51.264;7.150;2023-08-08T13:22:27;20.10;99.90
20833;DHT22;56075;51.264;7.150;2023-08-08T13:24:58;19.90;99.90
20833;DHT22;56075;51.264;7.150;2023-08-08T13:27:30;20.80;99.90
20833;DHT22;56075;51.264;7.150;2023-08-08T13:30:03;20.20;99.90
20833;DHT22;56075;51.264;7.150;2023-08-08T13:32:34;20.10;99.90
20833;DHT22;56075;51.264;7.150;2023-08-08T13:35:06;20.80;99.90
20833;DHT22;56075;51.264;7.150;2023-08-08T13:37:37;20.10;99.90
20833;DHT22;56075;51.264;7.150;2023-08-08T13:40:08;20.30;99.90
20833;DHT22;56075;51.264;7.150;2023-08-08T13:42:39;20.30;99.90
20833;DHT22;56075;51.264;7.150;2023-08-08T13:45:11;20.40;99.90
20833;DHT22;56075;51.264;7.150;2023-08-08T13:47:42;21.40;99.90
20833;DHT22;56075;51.264;7.150;2023-08-08T13:50:14;20.60;99.90
20833;DHT22;56075;51.264;7.150;2023-08-08T13:52:45;21.00;99.90
20833;DHT22;56075;51.264;7.150;2023-08-08T13:55:16;21.50;99.90
20833;DHT22;56075;51.264;7.150;2023-08-08T13:57:47;21.60;99.90
20833;DHT22;56075;51.264;7.150;2023-08-08T14:00:18;21.60;99.90
20833;DHT22;56075;51.264;7.150;2023-08-08T14:02:50;21.70;99.90
20833;DHT22;56075;51.264;7.150;2023-08-08T14:05:22;21.40;99.90
20833;DHT22;56075;51.264;7.150;2023-08-08T14:07:53;21.00;99.90
20833;DHT22;56075;51.264;7.150;2023-08-08T14:10:25;20.50;99.90
20833;DHT22;56075;51.264;7.150;2023-08-08T14:12:56;20.10;99.90
20833;DHT22;56075;51.264;7.150;2023-08-08T14:15:27;20.50;99.90
20833;DHT22;56075;51.264;7.150;2023-08-08T14:18:10;19.60;99.90
20833;DHT22;56075;51.264;7.150;2023-08-08T14:20:42;19.60;99.90
20833;DHT22;56075;51.264;7.150;2023-08-08T14:23:13;19.70;99.90
20833;DHT22;56075;51.264;7.150;2023-08-08T14:25:44;19.00;99.90
20833;DHT22;56075;51.264;7.150;2023-08-08T14:28:15;19.10;99.90
20833;DHT22;56075;51.264;7.150;2023-08-08T14:30:46;19.30;99.90
20833;DHT22;56075;51.264;7.150;2023-08-08T14:33:17;19.50;99.90
20833;DHT22;56075;51.264;7.150;2023-08-08T14:35:50;19.70;99.90
20833;DHT22;56075;51.264;7.150;2023-08-08T14:38:24;19.60;99.90
20833;DHT22;56075;51.264;7.150;2023-08-08T14:40:56;19.90;99.90
20833;DHT22;56075;51.264;7.150;2023-08-08T14:43:27;19.60;99.90
20833;DHT22;56075;51.264;7.150;2023-08-08T14:45:59;19.50;99.90
20833;DHT22;56075;51.264;7.150;2023-08-08T14:48:30;19.40;99.90
20833;DHT22;56075;51.264;7.150;2023-08-08T14:51:02;20.50;99.90
20833;DHT22;56075;51.264;7.150;2023-08-08T14:53:34;20.40;99.90
20833;DHT22;56075;51.264;7.150;2023-08-08T14:56:05;19.90;99.90
20833;DHT22;56075;51.264;7.150;2023-08-08T14:58:36;19.80;99.90
20833;DHT22;56075;51.264;7.150;2023-08-08T15:01:07;20.60;99.90
20833;DHT22;56075;51.264;7.150;2023-08-08T15:03:38;20.30;99.90
20833;DHT22;56075;51.264;7.150;2023-08-08T15:06:12;19.70;99.90
20833;DHT22;56075;51.264;7.150;2023-08-08T15:08:43;19.50;99.90
20833;DHT22;56075;51.264;7.150;2023-08-08T15:11:14;20.10;99.90
20833;DHT22;56075;51.264;7.150;2023-08-08T15:13:45;21.30;99.90
20833;DHT22;56075;51.264;7.150;2023-08-08T15:16:17;21.00;99.90
20833;DHT22;56075;51.264;7.150;2023-08-08T15:18:48;21.10;99.90
20833;DHT22;56075;51.264;7.150;2023-08-08T15:21:19;20.90;99.90
20833;DHT22;56075;51.264;7.150;2023-08-08T15:23:51;20.60;99.90
20833;DHT22;56075;51.264;7.150;2023-08-08T15:26:22;20.30;99.90
20833;DHT22;56075;51.264;7.150;2023-08-08T15:28:54;20.20;99.90
20833;DHT22;56075;51.264;7.150;2023-08-08T15:31:25;20.00;99.90
20833;DHT22;56075;51.264;7.150;2023-08-08T15:33:57;20.10;99.90
20833;DHT22;56075;51.264;7.150;2023-08-08T15:36:28;20.00;99.90
20833;DHT22;56075;51.264;7.150;2023-08-08T15:38:59;20.40;99.90
20833;DHT22;56075;51.264;7.150;2023-08-08T15:41:30;21.00;99.90
20833;DHT22;56075;51.264;7.150;2023-08-08T15:44:01;21.70;99.90
20833;DHT22;56075;51.264;7.150;2023-08-08T15:46:33;21.90;99.90
20833;DHT22;56075;51.264;7.150;2023-08-08T15:49:05;22.30;99.90
20833;DHT22;56075;51.264;7.150;2023-08-08T15:51:43;22.70;99.90
20833;DHT22;56075;51.264;7.150;2023-08-08T15:54:14;23.10;99.90
20833;DHT22;56075;51.264;7.150;2023-08-08T15:56:45;24.40;99.90
20833;DHT22;56075;51.264;7.150;2023-08-08T15:59:16;24.30;99.90
20833;DHT22;56075;51.264;7.150;2023-08-08T16:01:48;24.20;99.90
20833;DHT22;56075;51.264;7.150;2023-08-08T16:04:19;23.90;99.90
20833;DHT22;56075;51.264;7.150;2023-08-08T16:06:50;23.60;99.90
20833;DHT22;56075;51.264;7.150;2023-08-08T16:09:21;23.30;99.90
20833;DHT22;56075;51.264;7.150;2023-08-08T16:11:52;23.30;99.70